Time;durP1;ratioP1;P1;durP2;ratioP2;P2;SDS_P1;SDS_P2;PMS_P1;PMS_P2;Temp;Humidity;BMP_temperature;BMP_pressure;BME280_temperature;BME280_humidity;BME280_pressure;Samples;Min_cycle;Max_cycle;Signal;HPM_P1;HPM_P2
2020/12/30 00:00:59;;;;;;;9.68;4.78;;;3.00;99.90;;;;;;5057533;28;20020;-66
2020/12/30 00:03:27;;;;;;;7.75;4.10;;;3.00;99.90;;;;;;5057693;28;20021;-67
2020/12/30 00:05:54;;;;;;;5.90;3.80;;;3.00;99.90;;;;;;5057464;28;20025;-67
2020/12/30 00:08:22;;;;;;;7.40;3.90;;;3.00;99.90;;;;;;5057321;28;20063;-66
2020/12/30 00:10:50;;;;;;;7.88;3.97;;;3.00;99.90;;;;;;5057621;28;20083;-66
2020/12/30 00:13:18;;;;;;;6.78;3.95;;;3.00;99.90;;;;;;5057486;28;20101;-67
2020/12/30 00:15:46;;;;;;;7.57;3.85;;;3.00;99.90;;;;;;5057624;28;20028;-67
2020/12/30 00:18:14;;;;;;;9.50;4.15;;;2.90;99.90;;;;;;5057754;28;20082;-67
2020/12/30 00:20:41;;;;;;;7.07;3.58;;;2.90;99.90;;;;;;5057737;28;20025;-67
2020/12/30 00:23:09;;;;;;;9.18;3.83;;;2.90;99.90;;;;;;5057272;28;20021;-67
2020/12/30 00:25:36;;;;;;;9.50;4.68;;;2.80;99.90;;;;;;5057603;28;20029;-67
2020/12/30 00:28:03;;;;;;;7.65;3.78;;;2.70;99.90;;;;;;5057501;28;20029;-67
2020/12/30 00:30:31;;;;;;;9.18;4.18;;;2.60;99.90;;;;;;5056963;28;20021;-67
2020/12/30 00:32:58;;;;;;;8.98;3.92;;;2.60;99.90;;;;;;5056648;28;20024;-67
2020/12/30 00:35:25;;;;;;;7.93;4.32;;;2.60;99.90;;;;;;5039223;28;20447;-67
2020/12/30 00:37:53;;;;;;;11.85;4.55;;;2.50;99.90;;;;;;5039139;28;20033;-67
2020/12/30 00:40:25;;;;;;;7.93;4.20;;;2.40;99.90;;;;;;5057631;28;20108;-67
2020/12/30 00:42:53;;;;;;;7.35;3.55;;;2.40;99.90;;;;;;5056847;28;20029;-67
2020/12/30 00:45:20;;;;;;;9.00;4.40;;;2.40;99.90;;;;;;5056648;28;20025;-67
2020/12/30 00:47:48;;;;;;;7.53;4.60;;;2.40;99.90;;;;;;5057368;28;20037;-66
2020/12/30 00:50:16;;;;;;;9.45;4.32;;;2.40;99.90;;;;;;5056649;28;20025;-67
2020/12/30 00:52:44;;;;;;;7.15;3.92;;;2.40;99.90;;;;;;5057253;28;20021;-67
2020/12/30 00:55:16;;;;;;;9.57;4.72;;;2.40;99.90;;;;;;5056624;28;20025;-67
2020/12/30 00:57:44;;;;;;;10.68;4.03;;;2.40;99.90;;;;;;5057331;28;20021;-67
2020/12/30 01:00:11;;;;;;;13.82;4.28;;;2.40;99.90;;;;;;5057082;28;20032;-67
2020/12/30 01:02:39;;;;;;;8.27;4.05;;;2.40;99.90;;;;;;5057092;28;20060;-66
2020/12/30 01:05:07;;;;;;;10.98;4.57;;;2.40;99.90;;;;;;5056428;28;20021;-67
2020/12/30 01:07:34;;;;;;;7.43;3.80;;;2.40;99.90;;;;;;5056519;28;20468;-66
2020/12/30 01:10:04;;;;;;;8.20;4.30;;;2.50;99.90;;;;;;5056430;28;20031;-66
2020/12/30 01:12:31;;;;;;;8.57;4.53;;;2.50;99.90;;;;;;5056363;28;20321;-67
2020/12/30 01:14:58;;;;;;;8.07;4.15;;;2.60;99.90;;;;;;5056380;28;20018;-67
2020/12/30 01:17:28;;;;;;;10.50;4.50;;;2.60;99.90;;;;;;5056445;28;20036;-67
2020/12/30 01:19:56;;;;;;;9.52;3.90;;;2.60;99.90;;;;;;5038646;28;20036;-67
2020/12/30 01:22:24;;;;;;;7.57;4.22;;;2.70;99.90;;;;;;5056321;28;20025;-67
2020/12/30 01:24:51;;;;;;;10.88;5.45;;;2.60;99.90;;;;;;5038614;28;20029;-67
2020/12/30 01:27:19;;;;;;;10.30;4.43;;;2.60;99.90;;;;;;5056181;28;20082;-67
2020/12/30 01:29:46;;;;;;;8.38;4.07;;;2.60;99.90;;;;;;5056232;28;20021;-66
2020/12/30 01:32:17;;;;;;;10.27;4.53;;;2.60;99.90;;;;;;5056324;28;20103;-66
2020/12/30 01:34:45;;;;;;;8.20;4.43;;;2.50;99.90;;;;;;5056685;28;20013;-66
2020/12/30 01:37:12;;;;;;;7.88;4.32;;;2.50;99.90;;;;;;5038519;28;20032;-67
2020/12/30 01:39:39;;;;;;;7.80;4.22;;;2.40;99.90;;;;;;5056689;28;20017;-66
2020/12/30 01:42:07;;;;;;;14.13;3.92;;;2.40;99.90;;;;;;5056047;28;20024;-67
2020/12/30 01:44:34;;;;;;;7.45;3.95;;;2.30;99.90;;;;;;5039664;28;20044;-66
2020/12/30 01:47:03;;;;;;;8.13;4.10;;;2.30;99.90;;;;;;5060212;28;20352;-67
2020/12/30 01:49:30;;;;;;;8.32;4.30;;;2.30;99.90;;;;;;5060018;28;20024;-66
2020/12/30 01:52:00;;;;;;;6.90;3.83;;;2.20;99.90;;;;;;5060562;28;20327;-67
2020/12/30 01:54:28;;;;;;;8.38;3.80;;;2.20;99.90;;;;;;5042250;28;20025;-67
2020/12/30 01:56:56;;;;;;;7.40;3.80;;;2.30;99.90;;;;;;5042604;28;20482;-66
2020/12/30 01:59:23;;;;;;;8.98;4.03;;;2.20;99.90;;;;;;5060401;28;20075;-66
2020/12/30 02:02:03;;;;;;;8.65;4.28;;;2.30;99.90;;;;;;5059986;28;20029;-67
2020/12/30 02:04:51;;;;;;;9.20;3.78;;;2.30;99.90;;;;;;5059741;28;20049;-67
2020/12/30 02:07:22;;;;;;;7.90;4.20;;;2.30;99.90;;;;;;5059688;28;20102;-67
2020/12/30 02:09:51;;;;;;;8.20;4.90;;;2.30;99.90;;;;;;5059681;28;20036;-66
2020/12/30 02:12:19;;;;;;;8.65;4.30;;;2.30;99.90;;;;;;5060151;28;20309;-67
2020/12/30 02:14:47;;;;;;;8.82;4.45;;;2.30;99.90;;;;;;5025673;28;20021;-66
2020/12/30 02:17:16;;;;;;;7.28;3.92;;;2.30;99.90;;;;;;5041929;28;20028;-67
2020/12/30 02:19:45;;;;;;;9.05;4.38;;;2.30;99.90;;;;;;5060052;28;20017;-67
2020/12/30 02:22:24;;;;;;;7.53;4.20;;;2.30;99.90;;;;;;5059994;28;20021;-67
2020/12/30 02:24:51;;;;;;;7.78;4.05;;;2.40;99.90;;;;;;5059400;28;20067;-66
2020/12/30 02:27:19;;;;;;;10.88;5.00;;;2.30;99.90;;;;;;5059965;28;20021;-66
2020/12/30 02:29:46;;;;;;;8.23;4.18;;;2.30;99.90;;;;;;5059831;28;20020;-66
2020/12/30 02:32:14;;;;;;;9.65;4.25;;;2.30;99.90;;;;;;5041711;28;20317;-67
2020/12/30 02:34:41;;;;;;;8.45;4.90;;;2.20;99.90;;;;;;5059721;28;20052;-64
2020/12/30 02:37:10;;;;;;;9.95;4.30;;;2.30;99.90;;;;;;5059333;28;20025;-66
2020/12/30 02:39:38;;;;;;;11.07;4.60;;;2.20;99.90;;;;;;5041403;28;20303;-67
2020/12/30 02:42:05;;;;;;;7.85;4.35;;;2.20;99.90;;;;;;5041401;28;20369;-67
2020/12/30 02:44:33;;;;;;;10.30;4.80;;;2.10;99.90;;;;;;5059571;28;20013;-66
2020/12/30 02:47:01;;;;;;;8.50;4.85;;;2.00;99.90;;;;;;5059626;28;20104;-67
2020/12/30 02:49:30;;;;;;;9.80;4.75;;;1.90;99.90;;;;;;5058842;28;20329;-66
2020/12/30 02:51:58;;;;;;;8.48;4.05;;;1.80;99.90;;;;;;5058938;28;20041;-67
2020/12/30 02:54:26;;;;;;;8.05;4.82;;;1.70;99.90;;;;;;5058793;28;20104;-66
2020/12/30 02:56:54;;;;;;;9.00;4.40;;;1.60;99.90;;;;;;5058178;28;20020;-66
2020/12/30 02:59:21;;;;;;;9.45;5.10;;;1.50;99.90;;;;;;5041386;28;20345;-66
2020/12/30 03:01:48;;;;;;;10.05;5.38;;;1.40;99.90;;;;;;5040964;28;20436;-67
2020/12/30 03:04:15;;;;;;;11.18;4.78;;;1.30;99.90;;;;;;5059154;28;20040;-67
2020/12/30 03:06:43;;;;;;;6.93;4.10;;;1.20;99.90;;;;;;5059042;28;20445;-67
2020/12/30 03:09:10;;;;;;;11.32;4.80;;;1.10;99.90;;;;;;5059324;28;20392;-67
2020/12/30 03:11:38;;;;;;;11.00;5.30;;;1.10;99.90;;;;;;5058510;28;20086;-66
2020/12/30 03:14:05;;;;;;;13.65;5.72;;;1.00;99.90;;;;;;5058616;28;20025;-66
2020/12/30 03:16:33;;;;;;;13.77;5.75;;;1.00;99.90;;;;;;5040657;28;20033;-66
2020/12/30 03:19:01;;;;;;;13.88;5.63;;;1.00;99.90;;;;;;5058403;28;20322;-66
2020/12/30 03:21:29;;;;;;;14.43;6.03;;;1.00;99.90;;;;;;5040532;28;20025;-66
2020/12/30 03:23:57;;;;;;;10.68;4.70;;;0.90;99.90;;;;;;5058991;28;20029;-66
2020/12/30 03:26:25;;;;;;;14.80;6.15;;;0.90;99.90;;;;;;5058246;28;20044;-66
2020/12/30 03:28:52;;;;;;;17.27;5.80;;;0.90;99.90;;;;;;5040496;28;20029;-66
2020/12/30 03:31:19;;;;;;;15.07;5.57;;;0.80;99.90;;;;;;5058213;28;20017;-67
2020/12/30 03:33:47;;;;;;;21.60;7.65;;;0.80;99.90;;;;;;5058855;28;20048;-66
2020/12/30 03:36:15;;;;;;;21.30;6.97;;;0.80;99.90;;;;;;5058567;28;20021;-66
2020/12/30 03:38:43;;;;;;;13.40;5.63;;;0.70;99.90;;;;;;5058566;28;20021;-66
2020/12/30 03:41:10;;;;;;;22.02;8.43;;;0.70;99.90;;;;;;5040245;28;20330;-66
2020/12/30 03:43:38;;;;;;;17.05;7.38;;;0.70;99.90;;;;;;5040361;28;20107;-66
2020/12/30 03:46:05;;;;;;;30.38;8.02;;;0.70;99.90;;;;;;5057797;28;20067;-66
2020/12/30 03:48:33;;;;;;;12.93;5.63;;;0.70;99.90;;;;;;5023786;28;20029;-66
2020/12/30 03:51:02;;;;;;;13.02;5.55;;;0.80;99.90;;;;;;5057750;28;20333;-66
2020/12/30 03:53:30;;;;;;;17.00;7.07;;;0.80;99.90;;;;;;5057894;28;20017;-66
2020/12/30 03:55:57;;;;;;;12.57;5.18;;;0.70;99.90;;;;;;5058229;28;20071;-66
2020/12/30 03:58:25;;;;;;;10.32;5.55;;;0.70;99.90;;;;;;5057659;28;20021;-66
2020/12/30 04:00:53;;;;;;;9.20;4.95;;;0.70;99.90;;;;;;5057920;28;20025;-66
2020/12/30 04:03:21;;;;;;;16.55;5.93;;;0.70;99.90;;;;;;5057606;28;20076;-66
2020/12/30 04:05:51;;;;;;;11.35;4.68;;;0.70;99.90;;;;;;5057455;28;20021;-66
2020/12/30 04:08:19;;;;;;;9.63;4.68;;;0.70;99.90;;;;;;5056379;28;20067;-66
2020/12/30 04:10:46;;;;;;;11.82;4.60;;;0.70;99.90;;;;;;5040160;28;20025;-67
2020/12/30 04:13:13;;;;;;;7.70;4.18;;;0.70;99.90;;;;;;5057316;28;20074;-66
2020/12/30 04:15:45;;;;;;;8.40;4.88;;;0.70;99.90;;;;;;5040166;28;20021;-66
2020/12/30 04:18:12;;;;;;;8.93;4.45;;;0.80;99.90;;;;;;5057107;28;20053;-67
2020/12/30 04:20:40;;;;;;;10.10;5.00;;;0.80;99.90;;;;;;5057734;28;20104;-67
2020/12/30 04:23:08;;;;;;;13.43;5.35;;;0.80;99.90;;;;;;5057145;28;20340;-67
2020/12/30 04:25:35;;;;;;;11.10;5.05;;;0.80;99.90;;;;;;5039469;28;20147;-67
2020/12/30 04:28:03;;;;;;;8.63;5.15;;;0.70;99.90;;;;;;5057880;28;20024;-66
2020/12/30 04:30:30;;;;;;;11.25;5.05;;;0.70;99.90;;;;;;5057454;28;20025;-66
2020/12/30 04:32:58;;;;;;;8.75;4.75;;;0.70;99.90;;;;;;5057008;28;20017;-66
2020/12/30 04:35:26;;;;;;;10.02;4.88;;;0.70;99.90;;;;;;5057477;28;20021;-66
2020/12/30 04:37:53;;;;;;;9.20;4.70;;;0.70;99.90;;;;;;5057618;28;20410;-66
2020/12/30 04:40:20;;;;;;;11.32;5.63;;;0.60;99.90;;;;;;5056802;28;20075;-66
2020/12/30 04:42:52;;;;;;;10.70;5.32;;;0.60;99.90;;;;;;5057420;28;20025;-66
2020/12/30 04:45:22;;;;;;;7.90;4.07;;;0.60;99.90;;;;;;5056719;28;20025;-66
2020/12/30 04:47:51;;;;;;;10.30;5.10;;;0.70;99.90;;;;;;5056833;28;20025;-67
2020/12/30 04:50:18;;;;;;;9.60;4.45;;;0.60;99.90;;;;;;5057207;28;20021;-66
2020/12/30 04:52:46;;;;;;;8.93;4.43;;;0.70;99.90;;;;;;5039056;28;20425;-66
2020/12/30 04:55:13;;;;;;;7.57;3.97;;;0.70;99.90;;;;;;5057197;28;20025;-66
2020/12/30 04:58:07;;;;;;;9.40;4.38;;;0.60;99.90;;;;;;5056818;28;20100;-66
2020/12/30 05:00:37;;;;;;;7.78;3.70;;;0.60;99.90;;;;;;5052203;28;20060;-66
2020/12/30 05:03:11;;;;;;;11.68;4.05;;;0.60;99.90;;;;;;5038893;28;20381;-67
2020/12/30 05:05:39;;;;;;;8.82;4.25;;;0.70;99.90;;;;;;5057044;28;20366;-66
2020/12/30 05:08:16;;;;;;;9.18;4.53;;;0.70;99.90;;;;;;5056444;28;20434;-66
2020/12/30 05:10:45;;;;;;;9.43;4.28;;;0.70;99.90;;;;;;5056994;28;20056;-66
2020/12/30 05:13:13;;;;;;;12.07;4.78;;;0.70;99.90;;;;;;5056455;28;20032;-66
2020/12/30 05:15:41;;;;;;;8.77;4.57;;;0.70;99.90;;;;;;5056290;28;20045;-66
2020/12/30 05:18:09;;;;;;;8.85;5.28;;;0.60;99.90;;;;;;5056732;28;20092;-66
2020/12/30 05:20:38;;;;;;;6.65;3.63;;;0.60;99.90;;;;;;5055993;28;20032;-66
2020/12/30 05:23:09;;;;;;;8.55;4.65;;;0.50;99.90;;;;;;5056842;28;20036;-66
2020/12/30 05:25:38;;;;;;;10.77;5.28;;;0.40;99.90;;;;;;5056305;28;20025;-66
2020/12/30 05:28:07;;;;;;;10.05;4.80;;;0.40;99.90;;;;;;5056130;28;20025;-66
2020/12/30 05:30:39;;;;;;;6.47;4.13;;;0.30;99.90;;;;;;5056726;28;20025;-66
2020/12/30 05:33:07;;;;;;;6.82;3.90;;;0.20;99.90;;;;;;5056083;28;20120;-66
2020/12/30 05:35:35;;;;;;;12.25;4.90;;;0.10;99.90;;;;;;5038556;28;20039;-66
2020/12/30 05:38:03;;;;;;;10.02;4.50;;;0.10;99.90;;;;;;5056689;28;20423;-66
2020/12/30 05:40:37;;;;;;;10.18;4.95;;;0.10;99.90;;;;;;5056449;28;20035;-66
2020/12/30 05:43:13;;;;;;;7.80;4.35;;;0.00;99.90;;;;;;5056862;28;20048;-66
2020/12/30 05:45:52;;;;;;;7.53;3.90;;;0.00;99.90;;;;;;5056506;28;20416;-66
2020/12/30 05:48:20;;;;;;;9.48;4.18;;;-0.10;99.90;;;;;;5038306;28;20508;-66
2020/12/30 05:50:56;;;;;;;12.88;4.47;;;-0.10;99.90;;;;;;5056614;28;20022;-66
2020/12/30 05:53:25;;;;;;;14.88;4.53;;;-0.10;99.90;;;;;;5056226;28;20101;-66
2020/12/30 05:56:08;;;;;;;11.32;4.30;;;0.00;99.90;;;;;;5039197;28;20076;-66
2020/12/30 05:58:50;;;;;;;9.70;4.75;;;0.10;99.90;;;;;;5056040;28;20037;-66
2020/12/30 06:01:28;;;;;;;10.65;4.70;;;0.30;99.90;;;;;;5038159;28;20056;-66
2020/12/30 06:04:15;;;;;;;8.15;4.35;;;0.50;99.90;;;;;;5056396;28;20028;-66
2020/12/30 06:06:47;;;;;;;9.43;4.18;;;0.70;99.90;;;;;;5038173;28;20310;-66
2020/12/30 06:09:19;;;;;;;8.90;3.95;;;0.80;99.90;;;;;;5055874;28;20025;-66
2020/12/30 06:11:57;;;;;;;12.00;4.72;;;0.90;99.90;;;;;;5056146;28;20417;-66
2020/12/30 06:14:25;;;;;;;10.80;4.45;;;1.00;99.90;;;;;;5056395;28;20037;-66
2020/12/30 06:16:56;;;;;;;12.20;4.28;;;1.10;99.90;;;;;;5055726;28;20021;-66
2020/12/30 06:19:27;;;;;;;11.73;4.25;;;1.10;99.90;;;;;;5055782;28;20032;-66
2020/12/30 06:21:54;;;;;;;8.50;3.85;;;1.20;99.90;;;;;;5055788;28;20025;-66
2020/12/30 06:24:23;;;;;;;6.63;3.78;;;1.30;99.90;;;;;;5056282;28;20036;-66
2020/12/30 06:26:50;;;;;;;9.52;4.00;;;1.40;99.90;;;;;;5038010;28;20025;-66
2020/12/30 06:29:18;;;;;;;7.18;3.97;;;1.40;99.90;;;;;;5055642;28;20440;-67
2020/12/30 06:31:48;;;;;;;8.80;3.75;;;1.50;99.90;;;;;;5057268;28;20021;-66
2020/12/30 06:34:17;;;;;;;5.40;2.42;;;1.50;99.90;;;;;;5059394;28;20017;-66
2020/12/30 06:36:46;;;;;;;7.57;3.72;;;1.60;99.90;;;;;;5041497;28;20036;-66
2020/12/30 06:39:17;;;;;;;8.35;5.25;;;1.60;99.90;;;;;;5059422;28;20036;-66
2020/12/30 06:42:04;;;;;;;8.60;4.05;;;1.70;99.90;;;;;;5059048;28;20108;-66
2020/12/30 06:44:40;;;;;;;7.55;3.97;;;1.70;99.90;;;;;;5042384;28;20313;-66
2020/12/30 06:47:15;;;;;;;8.98;3.25;;;1.70;99.90;;;;;;5057991;28;20490;-66
2020/12/30 06:49:43;;;;;;;8.10;4.05;;;1.70;99.90;;;;;;5058915;28;20025;-66
2020/12/30 06:52:28;;;;;;;10.65;3.45;;;1.70;99.90;;;;;;5059417;28;20019;-66
2020/12/30 06:54:55;;;;;;;7.57;4.07;;;1.80;99.90;;;;;;5041092;28;20029;-66
2020/12/30 06:57:41;;;;;;;7.10;3.75;;;1.80;99.90;;;;;;5041248;28;20024;-67
2020/12/30 07:00:27;;;;;;;13.00;4.22;;;1.80;99.90;;;;;;5059289;28;20021;-67
2020/12/30 07:03:19;;;;;;;6.70;3.87;;;1.80;99.90;;;;;;5041092;28;20055;-66
2020/12/30 07:05:47;;;;;;;10.82;3.60;;;1.80;99.90;;;;;;5058542;28;20057;-67
2020/12/30 07:08:38;;;;;;;6.25;3.35;;;1.80;99.90;;;;;;5058644;28;20073;-66
2020/12/30 07:11:06;;;;;;;7.53;4.05;;;1.80;99.90;;;;;;5058758;28;20017;-66
2020/12/30 07:13:40;;;;;;;8.25;4.07;;;1.90;99.90;;;;;;5059045;28;20017;-66
2020/12/30 07:16:20;;;;;;;7.25;4.43;;;1.80;99.90;;;;;;5058738;28;20021;-66
2020/12/30 07:18:51;;;;;;;10.35;5.10;;;1.80;99.90;;;;;;5059032;28;20079;-65
2020/12/30 07:21:19;;;;;;;5.63;3.38;;;1.80;99.90;;;;;;5058276;28;20349;-65
2020/12/30 07:23:47;;;;;;;8.60;3.83;;;1.80;99.90;;;;;;5058844;28;20078;-66
2020/12/30 07:26:22;;;;;;;9.20;4.90;;;1.80;99.90;;;;;;5058754;28;20021;-65
2020/12/30 07:28:49;;;;;;;10.15;4.85;;;1.80;99.90;;;;;;5058676;28;20021;-65
2020/12/30 07:31:17;;;;;;;9.23;5.10;;;1.70;99.90;;;;;;5058319;28;20050;-62
2020/12/30 07:33:44;;;;;;;11.93;4.88;;;1.70;99.90;;;;;;5058159;28;20028;-66
2020/12/30 07:36:12;;;;;;;9.80;4.15;;;1.60;99.90;;;;;;5040318;28;20420;-67
2020/12/30 07:38:40;;;;;;;9.02;5.28;;;1.60;99.90;;;;;;5058594;28;20029;-67
2020/12/30 07:41:13;;;;;;;12.38;5.43;;;1.50;99.90;;;;;;5057967;28;20025;-66
2020/12/30 07:43:52;;;;;;;11.40;5.97;;;1.50;99.90;;;;;;5057953;28;20020;-67
2020/12/30 07:46:22;;;;;;;8.55;4.93;;;1.50;99.90;;;;;;5057696;28;20025;-66
2020/12/30 07:48:49;;;;;;;7.10;4.47;;;1.40;99.90;;;;;;5057774;28;20107;-66
2020/12/30 07:51:16;;;;;;;11.38;6.00;;;1.50;99.90;;;;;;5058070;28;20167;-66
2020/12/30 07:53:53;;;;;;;9.43;5.35;;;1.50;99.90;;;;;;5058331;28;20028;-67
2020/12/30 07:56:27;;;;;;;13.07;5.57;;;1.50;99.90;;;;;;5057664;28;20377;-66
2020/12/30 07:58:55;;;;;;;14.93;5.78;;;1.50;99.90;;;;;;5058125;28;20036;-67
2020/12/30 08:01:23;;;;;;;10.82;4.60;;;1.50;99.90;;;;;;5058277;28;20104;-67
2020/12/30 08:03:50;;;;;;;14.13;5.65;;;1.50;99.90;;;;;;5058126;28;20025;-67
2020/12/30 08:06:19;;;;;;;10.10;5.20;;;1.50;99.90;;;;;;5057992;28;20025;-66
2020/12/30 08:08:50;;;;;;;12.75;5.95;;;1.50;99.90;;;;;;5074960;28;20437;-66
2020/12/30 08:11:21;;;;;;;13.95;5.45;;;1.60;99.90;;;;;;5077359;28;20361;-66
2020/12/30 08:13:49;;;;;;;11.95;6.22;;;1.50;99.90;;;;;;5076271;28;20024;-66
2020/12/30 08:16:17;;;;;;;11.88;6.15;;;1.60;99.90;;;;;;5077192;28;20016;-66
2020/12/30 08:18:51;;;;;;;12.20;5.65;;;1.60;99.90;;;;;;5077987;28;20028;-66
2020/12/30 08:21:23;;;;;;;24.63;10.23;;;1.60;99.90;;;;;;5077473;28;20021;-67
2020/12/30 08:24:11;;;;;;;12.90;7.30;;;1.60;99.90;;;;;;5077737;28;20029;-65
2020/12/30 08:26:38;;;;;;;15.68;6.70;;;1.60;99.90;;;;;;5077266;28;20025;-65
2020/12/30 08:29:06;;;;;;;17.60;7.88;;;1.70;99.90;;;;;;5076841;28;20077;-64
2020/12/30 08:31:48;;;;;;;11.63;6.43;;;1.70;99.90;;;;;;5075887;28;20115;-64
2020/12/30 08:34:22;;;;;;;11.18;5.90;;;1.80;99.90;;;;;;5077521;28;20020;-64
2020/12/30 08:37:01;;;;;;;12.43;6.78;;;1.80;99.90;;;;;;5077180;28;20099;-65
2020/12/30 08:39:30;;;;;;;11.57;6.25;;;1.90;99.90;;;;;;5076915;28;20046;-65
2020/12/30 08:42:00;;;;;;;9.20;5.53;;;2.00;99.90;;;;;;5077604;28;20035;-65
2020/12/30 08:44:33;;;;;;;11.93;5.82;;;2.10;99.90;;;;;;5076684;28;20049;-65
2020/12/30 08:47:06;;;;;;;9.27;4.90;;;2.20;99.90;;;;;;5076789;28;20025;-65
2020/12/30 08:49:35;;;;;;;9.45;5.13;;;2.20;99.90;;;;;;5077243;28;20033;-65
2020/12/30 08:52:20;;;;;;;9.90;5.47;;;2.30;99.90;;;;;;5076745;28;20021;-65
2020/12/30 08:54:48;;;;;;;11.05;5.45;;;2.30;99.90;;;;;;5076013;28;20078;-65
2020/12/30 08:57:20;;;;;;;10.80;5.18;;;2.30;99.90;;;;;;5076797;28;20433;-65
2020/12/30 08:59:49;;;;;;;8.38;4.18;;;2.40;99.90;;;;;;5076905;28;20099;-65
2020/12/30 09:02:16;;;;;;;7.72;4.22;;;2.50;99.90;;;;;;5076599;28;20025;-65
2020/12/30 09:04:54;;;;;;;12.93;4.32;;;2.50;99.90;;;;;;5076589;28;20017;-65
2020/12/30 09:07:28;;;;;;;8.48;4.53;;;2.60;99.90;;;;;;5069008;28;20049;-65
2020/12/30 09:10:10;;;;;;;7.93;4.15;;;2.60;99.90;;;;;;5056982;28;20417;-65
2020/12/30 09:12:41;;;;;;;8.32;4.38;;;2.70;99.90;;;;;;5056355;28;20028;-65
2020/12/30 09:15:09;;;;;;;9.95;4.55;;;2.70;99.90;;;;;;5056600;28;20413;-65
2020/12/30 09:17:37;;;;;;;8.27;4.38;;;2.80;99.90;;;;;;5056275;28;20037;-65
2020/12/30 09:20:12;;;;;;;8.20;4.35;;;2.90;99.90;;;;;;5038786;28;20055;-65
2020/12/30 09:22:40;;;;;;;9.77;4.75;;;2.90;99.90;;;;;;5039088;28;20321;-65
2020/12/30 09:25:24;;;;;;;8.45;4.40;;;3.00;99.90;;;;;;5056494;28;20052;-65
2020/12/30 09:27:52;;;;;;;8.88;4.38;;;3.10;99.90;;;;;;5056233;28;20036;-66
2020/12/30 09:30:23;;;;;;;7.05;3.78;;;3.10;99.90;;;;;;5056185;28;20318;-65
2020/12/30 09:32:51;;;;;;;10.35;4.57;;;3.20;99.90;;;;;;5056663;28;20021;-65
2020/12/30 09:35:27;;;;;;;7.75;4.32;;;3.20;99.90;;;;;;5038421;28;20162;-65
2020/12/30 09:37:59;;;;;;;8.55;4.03;;;3.30;99.90;;;;;;5056027;28;20411;-65
2020/12/30 09:40:27;;;;;;;8.90;4.20;;;3.30;99.90;;;;;;5056620;28;20171;-63
2020/12/30 09:43:13;;;;;;;8.00;4.15;;;3.30;99.90;;;;;;5056373;28;20321;-63
2020/12/30 09:45:40;;;;;;;6.55;3.40;;;3.40;99.90;;;;;;5056672;28;20021;-65
2020/12/30 09:48:21;;;;;;;9.43;4.63;;;3.40;99.90;;;;;;5056287;28;20029;-65
2020/12/30 09:50:50;;;;;;;6.55;3.72;;;3.40;99.90;;;;;;5056017;28;20040;-65
2020/12/30 09:53:18;;;;;;;7.30;3.90;;;3.50;99.90;;;;;;5056045;28;20114;-65
2020/12/30 09:55:48;;;;;;;7.68;3.85;;;3.50;99.90;;;;;;5056006;28;20028;-65
2020/12/30 09:58:15;;;;;;;6.47;3.78;;;3.50;99.90;;;;;;5055982;28;20171;-65
2020/12/30 10:00:43;;;;;;;7.32;4.30;;;3.50;99.90;;;;;;5055843;28;20032;-65
2020/12/30 10:03:11;;;;;;;8.32;4.80;;;3.50;99.90;;;;;;5056380;28;20032;-65
2020/12/30 10:05:39;;;;;;;9.05;5.07;;;3.40;99.90;;;;;;5038211;28;20143;-65
2020/12/30 10:08:06;;;;;;;11.45;6.07;;;3.40;99.90;;;;;;5059308;28;20128;-65
2020/12/30 10:10:34;;;;;;;11.88;5.32;;;3.40;99.90;;;;;;5060251;28;20017;-65
2020/12/30 10:13:03;;;;;;;14.27;6.15;;;3.40;99.90;;;;;;5059812;28;20372;-63
2020/12/30 10:15:32;;;;;;;10.15;5.30;;;3.50;99.90;;;;;;5060119;28;20021;-65
2020/12/30 10:18:00;;;;;;;11.93;6.40;;;3.50;99.90;;;;;;5059601;28;20017;-65
2020/12/30 10:20:28;;;;;;;8.32;5.15;;;3.60;99.90;;;;;;5059492;28;20447;-65
2020/12/30 10:22:56;;;;;;;15.60;8.23;;;3.60;99.90;;;;;;5059349;28;20059;-66
2020/12/30 10:25:23;;;;;;;10.38;6.03;;;3.60;99.90;;;;;;5059989;28;20025;-66
2020/12/30 10:27:50;;;;;;;14.35;4.53;;;3.60;99.90;;;;;;5059323;28;20021;-66
2020/12/30 10:30:18;;;;;;;14.10;6.30;;;3.60;99.90;;;;;;5059255;28;20031;-65
2020/12/30 10:32:47;;;;;;;14.88;7.72;;;3.60;99.90;;;;;;5059424;28;20017;-65
2020/12/30 10:35:14;;;;;;;11.00;5.30;;;3.70;99.90;;;;;;5059822;28;20047;-67
2020/12/30 10:37:42;;;;;;;11.48;5.30;;;3.80;99.90;;;;;;5059184;28;20170;-67
2020/12/30 10:40:10;;;;;;;12.98;7.53;;;3.80;99.90;;;;;;5042061;28;20028;-67
2020/12/30 10:42:38;;;;;;;14.30;7.75;;;3.90;99.90;;;;;;5059722;28;20056;-67
2020/12/30 10:45:05;;;;;;;8.20;4.95;;;4.00;99.90;;;;;;5059320;28;20021;-67
2020/12/30 10:47:33;;;;;;;9.75;4.70;;;4.00;99.90;;;;;;5059289;28;20025;-67
2020/12/30 10:50:01;;;;;;;9.93;4.30;;;4.10;99.90;;;;;;5058891;28;20013;-67
2020/12/30 10:52:29;;;;;;;9.88;5.60;;;4.10;99.90;;;;;;5059087;28;20028;-67
2020/12/30 10:54:57;;;;;;;8.48;4.68;;;4.10;99.90;;;;;;5058877;28;20017;-67
2020/12/30 10:57:25;;;;;;;7.28;4.53;;;4.10;99.90;;;;;;5058873;28;20155;-67
2020/12/30 10:59:53;;;;;;;10.00;4.65;;;4.10;99.90;;;;;;5059311;28;20032;-67
2020/12/30 11:02:21;;;;;;;9.30;4.55;;;4.10;99.90;;;;;;5058908;28;20017;-67
2020/12/30 11:04:50;;;;;;;8.68;4.20;;;4.10;99.90;;;;;;5058948;28;20405;-67
2020/12/30 11:07:19;;;;;;;8.43;3.83;;;4.10;99.90;;;;;;5058767;28;20048;-67
2020/12/30 11:09:49;;;;;;;9.43;5.10;;;4.10;99.90;;;;;;5058617;28;20479;-67
2020/12/30 11:12:17;;;;;;;9.35;4.80;;;4.10;99.90;;;;;;5058366;28;20025;-67
2020/12/30 11:14:45;;;;;;;9.57;4.82;;;4.00;99.90;;;;;;5058470;28;20036;-66
2020/12/30 11:17:16;;;;;;;10.93;5.05;;;3.90;99.90;;;;;;5040409;28;20036;-67
2020/12/30 11:19:44;;;;;;;10.48;4.40;;;3.90;99.90;;;;;;5058343;28;20421;-67
2020/12/30 11:22:12;;;;;;;10.35;5.43;;;3.90;99.90;;;;;;5058343;28;20033;-64
2020/12/30 11:24:39;;;;;;;9.13;4.60;;;3.80;99.90;;;;;;5040612;28;20036;-65
2020/12/30 11:27:07;;;;;;;9.88;5.43;;;3.90;99.90;;;;;;5058966;28;20024;-64
2020/12/30 11:29:35;;;;;;;13.57;5.63;;;3.90;99.90;;;;;;5040513;28;20029;-65
2020/12/30 11:32:02;;;;;;;9.20;5.10;;;3.90;99.90;;;;;;5058221;28;20025;-65
2020/12/30 11:34:30;;;;;;;9.30;5.32;;;3.90;99.90;;;;;;5058691;28;20405;-65
2020/12/30 11:36:57;;;;;;;8.48;4.75;;;3.90;99.90;;;;;;5040424;28;20028;-65
2020/12/30 11:39:25;;;;;;;10.68;5.25;;;4.00;99.90;;;;;;5058637;28;20029;-65
2020/12/30 11:41:53;;;;;;;7.72;4.10;;;4.00;99.90;;;;;;5058616;28;20025;-67
2020/12/30 11:44:20;;;;;;;12.18;4.65;;;4.10;99.90;;;;;;5058017;28;20025;-67
2020/12/30 11:46:52;;;;;;;11.75;5.30;;;4.10;99.90;;;;;;5040118;28;20021;-66
2020/12/30 11:49:20;;;;;;;10.77;3.97;;;4.20;99.90;;;;;;5057941;28;20024;-66
2020/12/30 11:51:48;;;;;;;9.50;5.00;;;4.20;99.90;;;;;;5058029;28;20049;-66
2020/12/30 11:54:15;;;;;;;9.15;4.50;;;4.20;99.90;;;;;;5058297;28;20017;-66
2020/12/30 11:56:43;;;;;;;9.60;5.25;;;4.30;99.90;;;;;;5058327;28;20021;-66
2020/12/30 11:59:11;;;;;;;9.57;5.20;;;4.30;99.90;;;;;;5058220;28;20507;-65
2020/12/30 12:01:38;;;;;;;11.27;5.38;;;4.30;99.90;;;;;;5057913;28;20025;-67
2020/12/30 12:04:07;;;;;;;8.48;5.03;;;4.30;99.90;;;;;;5057476;28;20025;-67
2020/12/30 12:06:34;;;;;;;9.60;5.30;;;4.30;99.90;;;;;;5039733;28;20032;-67
2020/12/30 12:09:02;;;;;;;12.45;5.13;;;4.30;99.90;;;;;;5057352;28;20037;-67
2020/12/30 12:11:32;;;;;;;11.13;6.40;;;4.20;99.90;;;;;;5057412;28;20120;-65
2020/12/30 12:14:00;;;;;;;9.85;5.78;;;4.20;99.90;;;;;;5039561;28;20384;-65
2020/12/30 12:16:31;;;;;;;9.80;5.90;;;4.10;99.90;;;;;;5057263;28;20111;-65
2020/12/30 12:18:59;;;;;;;11.70;5.95;;;4.10;99.90;;;;;;5039635;28;20024;-65
2020/12/30 12:21:30;;;;;;;9.60;5.70;;;4.10;99.90;;;;;;5057297;28;20033;-65
2020/12/30 12:23:58;;;;;;;10.18;5.63;;;4.10;99.90;;;;;;5057089;28;20025;-65
2020/12/30 12:26:27;;;;;;;12.07;6.32;;;4.20;99.90;;;;;;5057147;28;20025;-65
2020/12/30 12:29:19;;;;;;;11.05;6.32;;;4.20;99.90;;;;;;5056534;28;20437;-65
2020/12/30 12:31:46;;;;;;;11.90;6.35;;;4.30;99.90;;;;;;5057761;28;20021;-65
2020/12/30 12:34:14;;;;;;;10.63;5.82;;;4.30;99.90;;;;;;5057030;28;20044;-66
2020/12/30 12:36:41;;;;;;;10.25;5.75;;;4.30;99.90;;;;;;5057569;28;20055;-65
2020/12/30 12:39:10;;;;;;;10.00;5.85;;;4.40;99.90;;;;;;5039234;28;20032;-65
2020/12/30 12:41:37;;;;;;;11.20;5.40;;;4.30;99.90;;;;;;5057106;28;20021;-63
2020/12/30 12:44:05;;;;;;;12.13;5.65;;;4.30;99.90;;;;;;5056822;28;20021;-63
2020/12/30 12:46:33;;;;;;;14.77;6.07;;;4.30;99.90;;;;;;5056819;28;20081;-63
2020/12/30 12:49:01;;;;;;;12.93;6.50;;;4.30;99.90;;;;;;5057256;28;20025;-64
2020/12/30 12:51:28;;;;;;;13.48;6.70;;;4.30;99.90;;;;;;5056784;28;20329;-63
2020/12/30 12:53:56;;;;;;;13.77;7.00;;;4.30;99.90;;;;;;5039020;28;20447;-65
2020/12/30 12:56:24;;;;;;;10.07;5.18;;;4.40;99.90;;;;;;5056696;28;20418;-65
2020/12/30 12:58:52;;;;;;;13.45;6.38;;;4.30;99.90;;;;;;5057245;28;20029;-64
2020/12/30 13:01:20;;;;;;;9.65;5.75;;;4.40;99.90;;;;;;5056545;28;20024;-65
2020/12/30 13:03:48;;;;;;;10.25;5.85;;;4.40;99.90;;;;;;5057116;28;20032;-65
2020/12/30 13:06:30;;;;;;;13.43;6.20;;;4.50;99.90;;;;;;5056607;28;20024;-65